sensor_id;sensor_type;location;lat;lon;timestamp;temperature;humidity
36856;DHT22;22788;51.434;6.786;2023-07-29T00:01:00;20.10;99.90
36856;DHT22;22788;51.434;6.786;2023-07-29T00:03:25;20.10;99.90
36856;DHT22;22788;51.434;6.786;2023-07-29T00:05:52;20.00;99.90
36856;DHT22;22788;51.434;6.786;2023-07-29T00:08:18;20.00;99.90
36856;DHT22;22788;51.434;6.786;2023-07-29T00:10:43;20.10;99.90
36856;DHT22;22788;51.434;6.786;2023-07-29T00:13:09;20.10;99.90
36856;DHT22;22788;51.434;6.786;2023-07-29T00:15:35;20.10;99.90
36856;DHT22;22788;51.434;6.786;2023-07-29T00:18:00;20.00;99.90
36856;DHT22;22788;51.434;6.786;2023-07-29T00:20:26;20.00;99.90
36856;DHT22;22788;51.434;6.786;2023-07-29T00:22:53;20.00;99.90
36856;DHT22;22788;51.434;6.786;2023-07-29T00:25:19;20.00;99.90
36856;DHT22;22788;51.434;6.786;2023-07-29T00:27:44;20.10;99.90
36856;DHT22;22788;51.434;6.786;2023-07-29T00:30:11;20.00;99.90
36856;DHT22;22788;51.434;6.786;2023-07-29T00:32:36;20.00;99.90
36856;DHT22;22788;51.434;6.786;2023-07-29T00:35:02;20.00;99.90
36856;DHT22;22788;51.434;6.786;2023-07-29T00:37:29;20.00;99.90
36856;DHT22;22788;51.434;6.786;2023-07-29T00:39:56;20.00;99.90
36856;DHT22;22788;51.434;6.786;2023-07-29T00:42:22;20.00;99.90
36856;DHT22;22788;51.434;6.786;2023-07-29T00:44:48;20.00;99.90
36856;DHT22;22788;51.434;6.786;2023-07-29T00:47:15;20.00;99.90
36856;DHT22;22788;51.434;6.786;2023-07-29T00:49:41;20.00;99.90
36856;DHT22;22788;51.434;6.786;2023-07-29T00:52:07;20.00;99.90
36856;DHT22;22788;51.434;6.786;2023-07-29T00:54:32;20.00;99.90
36856;DHT22;22788;51.434;6.786;2023-07-29T00:56:59;20.00;99.90
36856;DHT22;22788;51.434;6.786;2023-07-29T00:59:25;20.00;99.90
36856;DHT22;22788;51.434;6.786;2023-07-29T01:01:51;20.00;99.90
36856;DHT22;22788;51.434;6.786;2023-07-29T01:04:17;20.00;99.90
36856;DHT22;22788;51.434;6.786;2023-07-29T01:06:50;20.00;99.90
36856;DHT22;22788;51.434;6.786;2023-07-29T01:09:22;20.00;99.90
36856;DHT22;22788;51.434;6.786;2023-07-29T01:12:01;20.00;99.90
36856;DHT22;22788;51.434;6.786;2023-07-29T01:14:36;19.90;99.90
36856;DHT22;22788;51.434;6.786;2023-07-29T01:17:08;19.90;99.90
36856;DHT22;22788;51.434;6.786;2023-07-29T01:19:42;20.00;99.90
36856;DHT22;22788;51.434;6.786;2023-07-29T01:22:10;20.00;99.90
36856;DHT22;22788;51.434;6.786;2023-07-29T01:24:37;20.00;99.90
36856;DHT22;22788;51.434;6.786;2023-07-29T01:27:06;20.00;99.90
36856;DHT22;22788;51.434;6.786;2023-07-29T01:29:31;20.00;99.90
36856;DHT22;22788;51.434;6.786;2023-07-29T01:32:03;20.00;99.90
36856;DHT22;22788;51.434;6.786;2023-07-29T01:34:38;20.00;99.90
36856;DHT22;22788;51.434;6.786;2023-07-29T01:37:09;20.00;99.90
36856;DHT22;22788;51.434;6.786;2023-07-29T01:39:40;19.90;99.90
36856;DHT22;22788;51.434;6.786;2023-07-29T01:42:07;19.90;99.90
36856;DHT22;22788;51.434;6.786;2023-07-29T01:44:33;19.90;99.90
36856;DHT22;22788;51.434;6.786;2023-07-29T01:46:59;19.90;99.90
36856;DHT22;22788;51.434;6.786;2023-07-29T01:49:27;19.90;99.90
36856;DHT22;22788;51.434;6.786;2023-07-29T01:51:56;19.90;99.90
36856;DHT22;22788;51.434;6.786;2023-07-29T01:54:35;19.90;99.90
36856;DHT22;22788;51.434;6.786;2023-07-29T01:57:03;19.90;99.90
36856;DHT22;22788;51.434;6.786;2023-07-29T01:59:31;19.90;99.90
36856;DHT22;22788;51.434;6.786;2023-07-29T02:01:57;19.90;99.90
36856;DHT22;22788;51.434;6.786;2023-07-29T02:04:25;19.90;99.90
36856;DHT22;22788;51.434;6.786;2023-07-29T02:06:53;19.90;99.90
36856;DHT22;22788;51.434;6.786;2023-07-29T02:09:20;19.90;99.90
36856;DHT22;22788;51.434;6.786;2023-07-29T02:11:48;19.90;99.90
36856;DHT22;22788;51.434;6.786;2023-07-29T02:14:17;19.90;99.90
36856;DHT22;22788;51.434;6.786;2023-07-29T02:16:45;19.90;99.90
36856;DHT22;22788;51.434;6.786;2023-07-29T02:19:13;19.90;99.90
36856;DHT22;22788;51.434;6.786;2023-07-29T02:21:41;19.90;99.90
36856;DHT22;22788;51.434;6.786;2023-07-29T02:24:11;19.80;99.90
36856;DHT22;22788;51.434;6.786;2023-07-29T02:26:38;19.80;99.90
36856;DHT22;22788;51.434;6.786;2023-07-29T02:29:06;19.80;99.90
36856;DHT22;22788;51.434;6.786;2023-07-29T02:31:36;19.80;99.90
36856;DHT22;22788;51.434;6.786;2023-07-29T02:34:04;19.80;99.90
36856;DHT22;22788;51.434;6.786;2023-07-29T02:36:31;19.90;99.90
36856;DHT22;22788;51.434;6.786;2023-07-29T02:38:59;19.80;99.90
36856;DHT22;22788;51.434;6.786;2023-07-29T02:41:27;19.90;99.90
36856;DHT22;22788;51.434;6.786;2023-07-29T02:43:55;19.80;99.90
36856;DHT22;22788;51.434;6.786;2023-07-29T02:46:22;19.90;99.90
36856;DHT22;22788;51.434;6.786;2023-07-29T02:48:51;19.90;99.90
36856;DHT22;22788;51.434;6.786;2023-07-29T02:51:18;19.80;99.90
36856;DHT22;22788;51.434;6.786;2023-07-29T02:53:45;19.80;99.90
36856;DHT22;22788;51.434;6.786;2023-07-29T02:56:13;19.80;99.90
36856;DHT22;22788;51.434;6.786;2023-07-29T02:58:41;19.80;99.90
36856;DHT22;22788;51.434;6.786;2023-07-29T03:01:09;19.80;99.90
36856;DHT22;22788;51.434;6.786;2023-07-29T03:03:37;19.80;99.90
36856;DHT22;22788;51.434;6.786;2023-07-29T03:06:07;19.80;99.90
36856;DHT22;22788;51.434;6.786;2023-07-29T03:08:35;19.80;99.90
36856;DHT22;22788;51.434;6.786;2023-07-29T03:11:07;19.80;99.90
36856;DHT22;22788;51.434;6.786;2023-07-29T03:13:35;19.90;99.90
36856;DHT22;22788;51.434;6.786;2023-07-29T03:16:06;19.80;99.90
36856;DHT22;22788;51.434;6.786;2023-07-29T03:18:34;19.90;99.90
36856;DHT22;22788;51.434;6.786;2023-07-29T03:21:02;19.80;99.90
36856;DHT22;22788;51.434;6.786;2023-07-29T03:23:32;19.80;99.90
36856;DHT22;22788;51.434;6.786;2023-07-29T03:26:00;19.80;99.90
36856;DHT22;22788;51.434;6.786;2023-07-29T03:28:28;19.80;99.90
36856;DHT22;22788;51.434;6.786;2023-07-29T03:30:56;19.80;99.90
36856;DHT22;22788;51.434;6.786;2023-07-29T03:33:24;19.80;99.90
36856;DHT22;22788;51.434;6.786;2023-07-29T03:35:51;19.80;99.90
36856;DHT22;22788;51.434;6.786;2023-07-29T03:38:19;19.80;99.90
36856;DHT22;22788;51.434;6.786;2023-07-29T03:40:51;19.80;99.90
36856;DHT22;22788;51.434;6.786;2023-07-29T03:43:19;19.80;99.90
36856;DHT22;22788;51.434;6.786;2023-07-29T03:45:47;19.80;99.90
36856;DHT22;22788;51.434;6.786;2023-07-29T03:48:14;19.80;99.90
36856;DHT22;22788;51.434;6.786;2023-07-29T03:50:39;19.80;99.90
36856;DHT22;22788;51.434;6.786;2023-07-29T03:53:05;19.70;99.90
36856;DHT22;22788;51.434;6.786;2023-07-29T03:55:31;19.80;99.90
36856;DHT22;22788;51.434;6.786;2023-07-29T03:57:59;19.80;99.90
36856;DHT22;22788;51.434;6.786;2023-07-29T04:00:25;19.70;99.90
36856;DHT22;22788;51.434;6.786;2023-07-29T04:02:51;19.70;99.90
36856;DHT22;22788;51.434;6.786;2023-07-29T04:05:17;19.70;99.90
36856;DHT22;22788;51.434;6.786;2023-07-29T04:07:43;19.80;99.90
36856;DHT22;22788;51.434;6.786;2023-07-29T04:10:08;19.80;99.90
36856;DHT22;22788;51.434;6.786;2023-07-29T04:12:34;19.80;99.90
36856;DHT22;22788;51.434;6.786;2023-07-29T04:15:02;19.80;99.90
36856;DHT22;22788;51.434;6.786;2023-07-29T04:17:27;19.70;99.90
36856;DHT22;22788;51.434;6.786;2023-07-29T04:19:53;19.70;99.90
36856;DHT22;22788;51.434;6.786;2023-07-29T04:22:18;19.70;99.90
36856;DHT22;22788;51.434;6.786;2023-07-29T04:24:44;19.70;99.90
36856;DHT22;22788;51.434;6.786;2023-07-29T04:27:10;19.70;99.90
36856;DHT22;22788;51.434;6.786;2023-07-29T04:29:36;19.70;99.90
36856;DHT22;22788;51.434;6.786;2023-07-29T04:32:03;19.70;99.90
36856;DHT22;22788;51.434;6.786;2023-07-29T04:34:29;19.70;99.90
36856;DHT22;22788;51.434;6.786;2023-07-29T04:36:55;19.70;99.90
36856;DHT22;22788;51.434;6.786;2023-07-29T04:39:20;19.70;99.90
36856;DHT22;22788;51.434;6.786;2023-07-29T04:41:46;19.70;99.90
36856;DHT22;22788;51.434;6.786;2023-07-29T04:44:12;19.70;99.90
36856;DHT22;22788;51.434;6.786;2023-07-29T04:46:37;19.60;99.90
36856;DHT22;22788;51.434;6.786;2023-07-29T04:49:04;19.60;99.90
36856;DHT22;22788;51.434;6.786;2023-07-29T04:51:30;19.60;99.90
36856;DHT22;22788;51.434;6.786;2023-07-29T04:53:56;19.60;99.90
36856;DHT22;22788;51.434;6.786;2023-07-29T04:56:21;19.60;99.90
36856;DHT22;22788;51.434;6.786;2023-07-29T04:58:47;19.60;99.90
36856;DHT22;22788;51.434;6.786;2023-07-29T05:01:13;19.60;99.90
36856;DHT22;22788;51.434;6.786;2023-07-29T05:03:38;19.60;99.90
36856;DHT22;22788;51.434;6.786;2023-07-29T05:06:05;19.60;99.90
36856;DHT22;22788;51.434;6.786;2023-07-29T05:08:31;19.60;99.90
36856;DHT22;22788;51.434;6.786;2023-07-29T05:10:56;19.60;99.90
36856;DHT22;22788;51.434;6.786;2023-07-29T05:13:22;19.60;99.90
36856;DHT22;22788;51.434;6.786;2023-07-29T05:15:48;19.60;99.90
36856;DHT22;22788;51.434;6.786;2023-07-29T05:18:14;19.70;99.90
36856;DHT22;22788;51.434;6.786;2023-07-29T05:20:40;19.60;99.90
36856;DHT22;22788;51.434;6.786;2023-07-29T05:23:07;19.60;99.90
36856;DHT22;22788;51.434;6.786;2023-07-29T05:25:32;19.60;99.90
36856;DHT22;22788;51.434;6.786;2023-07-29T05:27:58;19.60;99.90
36856;DHT22;22788;51.434;6.786;2023-07-29T05:30:23;19.60;99.90
36856;DHT22;22788;51.434;6.786;2023-07-29T05:32:49;19.50;99.90
36856;DHT22;22788;51.434;6.786;2023-07-29T05:35:15;19.60;99.90
36856;DHT22;22788;51.434;6.786;2023-07-29T05:37:40;19.60;99.90
36856;DHT22;22788;51.434;6.786;2023-07-29T05:40:08;19.60;99.90
36856;DHT22;22788;51.434;6.786;2023-07-29T05:42:34;19.60;99.90
36856;DHT22;22788;51.434;6.786;2023-07-29T05:45:00;19.60;99.90
36856;DHT22;22788;51.434;6.786;2023-07-29T05:47:25;19.60;99.90
36856;DHT22;22788;51.434;6.786;2023-07-29T05:49:51;19.60;99.90
36856;DHT22;22788;51.434;6.786;2023-07-29T05:52:17;19.60;99.90
36856;DHT22;22788;51.434;6.786;2023-07-29T05:54:43;19.60;99.90
36856;DHT22;22788;51.434;6.786;2023-07-29T05:57:10;19.60;99.90
36856;DHT22;22788;51.434;6.786;2023-07-29T05:59:36;19.60;99.90
36856;DHT22;22788;51.434;6.786;2023-07-29T06:02:02;19.60;99.90
36856;DHT22;22788;51.434;6.786;2023-07-29T06:04:28;19.60;99.90
36856;DHT22;22788;51.434;6.786;2023-07-29T06:06:53;19.50;99.90
36856;DHT22;22788;51.434;6.786;2023-07-29T06:09:19;19.50;99.90
36856;DHT22;22788;51.434;6.786;2023-07-29T06:11:45;19.50;99.90
36856;DHT22;22788;51.434;6.786;2023-07-29T06:14:12;19.60;99.90
36856;DHT22;22788;51.434;6.786;2023-07-29T06:16:37;19.60;99.90
36856;DHT22;22788;51.434;6.786;2023-07-29T06:19:03;19.60;99.90
36856;DHT22;22788;51.434;6.786;2023-07-29T06:21:28;19.60;99.90
36856;DHT22;22788;51.434;6.786;2023-07-29T06:23:54;19.60;99.90
36856;DHT22;22788;51.434;6.786;2023-07-29T06:26:20;19.60;99.90
36856;DHT22;22788;51.434;6.786;2023-07-29T06:28:45;19.50;99.90
36856;DHT22;22788;51.434;6.786;2023-07-29T06:31:12;19.60;99.90
36856;DHT22;22788;51.434;6.786;2023-07-29T06:33:38;19.50;99.90
36856;DHT22;22788;51.434;6.786;2023-07-29T06:36:04;19.60;99.90
36856;DHT22;22788;51.434;6.786;2023-07-29T06:38:30;19.60;99.90
36856;DHT22;22788;51.434;6.786;2023-07-29T06:40:56;19.60;99.90
36856;DHT22;22788;51.434;6.786;2023-07-29T06:43:21;19.50;99.90
36856;DHT22;22788;51.434;6.786;2023-07-29T06:45:47;19.50;99.90
36856;DHT22;22788;51.434;6.786;2023-07-29T06:48:14;19.50;99.90
36856;DHT22;22788;51.434;6.786;2023-07-29T06:50:40;19.50;99.90
36856;DHT22;22788;51.434;6.786;2023-07-29T06:53:06;19.60;99.90
36856;DHT22;22788;51.434;6.786;2023-07-29T06:55:31;19.60;99.90
36856;DHT22;22788;51.434;6.786;2023-07-29T06:57:57;19.60;99.90
36856;DHT22;22788;51.434;6.786;2023-07-29T07:00:23;19.60;99.90
36856;DHT22;22788;51.434;6.786;2023-07-29T07:02:48;19.60;99.90
36856;DHT22;22788;51.434;6.786;2023-07-29T07:05:15;19.60;99.90
36856;DHT22;22788;51.434;6.786;2023-07-29T07:07:41;19.60;99.90
36856;DHT22;22788;51.434;6.786;2023-07-29T07:10:07;19.60;99.90
36856;DHT22;22788;51.434;6.786;2023-07-29T07:12:33;19.60;99.90
36856;DHT22;22788;51.434;6.786;2023-07-29T07:14:59;19.60;99.90
36856;DHT22;22788;51.434;6.786;2023-07-29T07:17:25;19.60;99.90
36856;DHT22;22788;51.434;6.786;2023-07-29T07:19:50;19.70;99.90
36856;DHT22;22788;51.434;6.786;2023-07-29T07:22:17;19.70;99.90
36856;DHT22;22788;51.434;6.786;2023-07-29T07:24:43;19.70;99.90
36856;DHT22;22788;51.434;6.786;2023-07-29T07:27:09;19.60;99.90
36856;DHT22;22788;51.434;6.786;2023-07-29T07:29:34;19.60;99.90
36856;DHT22;22788;51.434;6.786;2023-07-29T07:32:00;19.60;99.90
36856;DHT22;22788;51.434;6.786;2023-07-29T07:34:26;19.60;99.90
36856;DHT22;22788;51.434;6.786;2023-07-29T07:36:51;19.60;99.90
36856;DHT22;22788;51.434;6.786;2023-07-29T07:39:18;19.60;99.90
36856;DHT22;22788;51.434;6.786;2023-07-29T07:41:44;19.50;99.90
36856;DHT22;22788;51.434;6.786;2023-07-29T07:44:10;19.60;99.90
36856;DHT22;22788;51.434;6.786;2023-07-29T07:46:35;19.70;99.90
36856;DHT22;22788;51.434;6.786;2023-07-29T07:49:01;19.70;99.90
36856;DHT22;22788;51.434;6.786;2023-07-29T07:51:26;19.70;99.90
36856;DHT22;22788;51.434;6.786;2023-07-29T07:53:52;19.70;99.90
36856;DHT22;22788;51.434;6.786;2023-07-29T07:56:19;19.70;99.90
36856;DHT22;22788;51.434;6.786;2023-07-29T07:58:45;19.70;99.90
36856;DHT22;22788;51.434;6.786;2023-07-29T08:01:11;19.70;99.90
36856;DHT22;22788;51.434;6.786;2023-07-29T08:03:36;19.70;99.90
36856;DHT22;22788;51.434;6.786;2023-07-29T08:06:02;19.70;99.90
36856;DHT22;22788;51.434;6.786;2023-07-29T08:08:28;19.80;99.90
36856;DHT22;22788;51.434;6.786;2023-07-29T08:10:54;19.70;99.90
36856;DHT22;22788;51.434;6.786;2023-07-29T08:13:21;19.80;99.90
36856;DHT22;22788;51.434;6.786;2023-07-29T08:15:47;19.80;99.90
36856;DHT22;22788;51.434;6.786;2023-07-29T08:18:13;19.80;99.90
36856;DHT22;22788;51.434;6.786;2023-07-29T08:20:39;19.80;99.90
36856;DHT22;22788;51.434;6.786;2023-07-29T08:23:04;19.90;99.90
36856;DHT22;22788;51.434;6.786;2023-07-29T08:25:30;19.90;99.90
36856;DHT22;22788;51.434;6.786;2023-07-29T08:27:56;19.90;99.90
36856;DHT22;22788;51.434;6.786;2023-07-29T08:30:23;19.90;99.90
36856;DHT22;22788;51.434;6.786;2023-07-29T08:32:48;20.00;99.90
36856;DHT22;22788;51.434;6.786;2023-07-29T08:35:14;20.00;99.90
36856;DHT22;22788;51.434;6.786;2023-07-29T08:37:39;20.00;99.90
36856;DHT22;22788;51.434;6.786;2023-07-29T08:40:06;20.00;99.90
36856;DHT22;22788;51.434;6.786;2023-07-29T08:42:32;20.00;99.90
36856;DHT22;22788;51.434;6.786;2023-07-29T08:45:06;20.00;99.90
36856;DHT22;22788;51.434;6.786;2023-07-29T08:47:34;20.10;99.90
36856;DHT22;22788;51.434;6.786;2023-07-29T08:50:01;20.00;99.90
36856;DHT22;22788;51.434;6.786;2023-07-29T08:52:29;20.10;99.90
36856;DHT22;22788;51.434;6.786;2023-07-29T08:54:55;20.10;99.90
36856;DHT22;22788;51.434;6.786;2023-07-29T08:57:20;20.20;99.90
36856;DHT22;22788;51.434;6.786;2023-07-29T08:59:47;20.30;99.90
36856;DHT22;22788;51.434;6.786;2023-07-29T09:02:13;20.30;99.90
36856;DHT22;22788;51.434;6.786;2023-07-29T09:04:40;20.30;99.90
36856;DHT22;22788;51.434;6.786;2023-07-29T09:07:05;20.30;99.90
36856;DHT22;22788;51.434;6.786;2023-07-29T09:09:32;20.30;99.90
36856;DHT22;22788;51.434;6.786;2023-07-29T09:11:57;20.30;99.90
36856;DHT22;22788;51.434;6.786;2023-07-29T09:14:23;20.20;99.90
36856;DHT22;22788;51.434;6.786;2023-07-29T09:16:49;20.20;99.90
36856;DHT22;22788;51.434;6.786;2023-07-29T09:19:15;20.20;99.90
36856;DHT22;22788;51.434;6.786;2023-07-29T09:21:42;20.30;99.90
36856;DHT22;22788;51.434;6.786;2023-07-29T09:24:12;20.30;99.90
36856;DHT22;22788;51.434;6.786;2023-07-29T09:26:48;20.30;99.90
36856;DHT22;22788;51.434;6.786;2023-07-29T09:29:14;20.30;99.90
36856;DHT22;22788;51.434;6.786;2023-07-29T09:31:40;20.30;99.90
36856;DHT22;22788;51.434;6.786;2023-07-29T09:34:05;20.30;99.90
36856;DHT22;22788;51.434;6.786;2023-07-29T09:36:33;20.30;99.90
36856;DHT22;22788;51.434;6.786;2023-07-29T09:39:01;20.30;99.90
36856;DHT22;22788;51.434;6.786;2023-07-29T09:41:28;20.30;99.90
36856;DHT22;22788;51.434;6.786;2023-07-29T09:43:57;20.30;99.90
36856;DHT22;22788;51.434;6.786;2023-07-29T09:46:24;20.30;99.90
36856;DHT22;22788;51.434;6.786;2023-07-29T09:48:53;20.30;99.90
36856;DHT22;22788;51.434;6.786;2023-07-29T09:51:18;20.30;99.90
36856;DHT22;22788;51.434;6.786;2023-07-29T09:53:45;20.40;99.90
36856;DHT22;22788;51.434;6.786;2023-07-29T09:56:13;20.40;99.90
36856;DHT22;22788;51.434;6.786;2023-07-29T09:58:39;20.50;99.90
36856;DHT22;22788;51.434;6.786;2023-07-29T10:01:05;20.60;99.90
36856;DHT22;22788;51.434;6.786;2023-07-29T10:03:31;20.60;99.90
36856;DHT22;22788;51.434;6.786;2023-07-29T10:05:59;20.60;99.90
36856;DHT22;22788;51.434;6.786;2023-07-29T10:08:25;20.60;99.90
36856;DHT22;22788;51.434;6.786;2023-07-29T10:10:52;20.60;99.90
36856;DHT22;22788;51.434;6.786;2023-07-29T10:13:19;20.70;99.90
36856;DHT22;22788;51.434;6.786;2023-07-29T10:15:45;20.70;99.90
36856;DHT22;22788;51.434;6.786;2023-07-29T10:18:12;20.80;99.90
36856;DHT22;22788;51.434;6.786;2023-07-29T10:20:39;20.80;99.90
36856;DHT22;22788;51.434;6.786;2023-07-29T10:23:07;21.20;99.90
36856;DHT22;22788;51.434;6.786;2023-07-29T10:25:40;21.00;99.90
36856;DHT22;22788;51.434;6.786;2023-07-29T10:28:08;21.00;99.90
36856;DHT22;22788;51.434;6.786;2023-07-29T10:30:39;21.00;99.90
36856;DHT22;22788;51.434;6.786;2023-07-29T10:33:05;21.00;99.90
36856;DHT22;22788;51.434;6.786;2023-07-29T10:35:32;20.90;99.90
36856;DHT22;22788;51.434;6.786;2023-07-29T10:37:59;20.90;99.90
36856;DHT22;22788;51.434;6.786;2023-07-29T10:40:25;21.00;99.90
36856;DHT22;22788;51.434;6.786;2023-07-29T10:43:01;20.90;99.90
36856;DHT22;22788;51.434;6.786;2023-07-29T10:45:38;20.90;99.90
36856;DHT22;22788;51.434;6.786;2023-07-29T10:48:06;20.90;99.90
36856;DHT22;22788;51.434;6.786;2023-07-29T10:50:32;21.00;99.90
36856;DHT22;22788;51.434;6.786;2023-07-29T10:52:57;21.00;99.90
36856;DHT22;22788;51.434;6.786;2023-07-29T10:55:28;21.10;99.90
36856;DHT22;22788;51.434;6.786;2023-07-29T10:58:05;21.20;99.90
36856;DHT22;22788;51.434;6.786;2023-07-29T11:00:31;21.20;99.90
36856;DHT22;22788;51.434;6.786;2023-07-29T11:03:02;21.10;99.90
36856;DHT22;22788;51.434;6.786;2023-07-29T11:05:43;21.10;99.90
36856;DHT22;22788;51.434;6.786;2023-07-29T11:08:16;21.10;99.90
36856;DHT22;22788;51.434;6.786;2023-07-29T11:10:43;21.10;99.90
36856;DHT22;22788;51.434;6.786;2023-07-29T11:13:08;21.10;99.90
36856;DHT22;22788;51.434;6.786;2023-07-29T11:15:34;21.00;99.90
36856;DHT22;22788;51.434;6.786;2023-07-29T11:18:02;21.00;99.90
36856;DHT22;22788;51.434;6.786;2023-07-29T11:20:29;21.00;99.90
36856;DHT22;22788;51.434;6.786;2023-07-29T11:22:56;21.10;99.90
36856;DHT22;22788;51.434;6.786;2023-07-29T11:25:23;21.10;99.90
36856;DHT22;22788;51.434;6.786;2023-07-29T11:27:51;21.10;99.90
36856;DHT22;22788;51.434;6.786;2023-07-29T11:30:16;21.20;99.90
36856;DHT22;22788;51.434;6.786;2023-07-29T11:32:43;21.30;99.90
36856;DHT22;22788;51.434;6.786;2023-07-29T11:35:12;21.30;99.90
36856;DHT22;22788;51.434;6.786;2023-07-29T11:37:39;21.30;99.90
36856;DHT22;22788;51.434;6.786;2023-07-29T11:40:05;21.30;99.90
36856;DHT22;22788;51.434;6.786;2023-07-29T11:42:31;21.30;99.90
36856;DHT22;22788;51.434;6.786;2023-07-29T11:44:57;21.50;99.90
36856;DHT22;22788;51.434;6.786;2023-07-29T11:47:23;21.50;99.90
36856;DHT22;22788;51.434;6.786;2023-07-29T11:49:49;21.50;99.90
36856;DHT22;22788;51.434;6.786;2023-07-29T11:52:16;21.60;99.90
36856;DHT22;22788;51.434;6.786;2023-07-29T11:54:43;21.70;99.90
36856;DHT22;22788;51.434;6.786;2023-07-29T11:57:09;21.60;99.90
36856;DHT22;22788;51.434;6.786;2023-07-29T11:59:36;21.70;99.90
36856;DHT22;22788;51.434;6.786;2023-07-29T12:02:02;21.70;99.90
36856;DHT22;22788;51.434;6.786;2023-07-29T12:04:30;21.60;99.90
36856;DHT22;22788;51.434;6.786;2023-07-29T12:06:56;21.70;99.90
36856;DHT22;22788;51.434;6.786;2023-07-29T12:09:24;21.70;99.90
36856;DHT22;22788;51.434;6.786;2023-07-29T12:11:50;21.70;99.90
36856;DHT22;22788;51.434;6.786;2023-07-29T12:14:16;21.70;99.90
36856;DHT22;22788;51.434;6.786;2023-07-29T12:16:42;21.70;99.90
36856;DHT22;22788;51.434;6.786;2023-07-29T12:19:08;21.70;99.90
36856;DHT22;22788;51.434;6.786;2023-07-29T12:21:34;21.70;99.90
36856;DHT22;22788;51.434;6.786;2023-07-29T12:24:02;21.80;99.90
36856;DHT22;22788;51.434;6.786;2023-07-29T12:26:29;21.80;99.90
36856;DHT22;22788;51.434;6.786;2023-07-29T12:28:55;21.90;99.90
36856;DHT22;22788;51.434;6.786;2023-07-29T12:31:21;22.00;99.90
36856;DHT22;22788;51.434;6.786;2023-07-29T12:33:46;22.20;99.90
36856;DHT22;22788;51.434;6.786;2023-07-29T12:36:12;22.10;99.90
36856;DHT22;22788;51.434;6.786;2023-07-29T12:38:37;22.00;99.90
36856;DHT22;22788;51.434;6.786;2023-07-29T12:41:03;22.00;99.90
36856;DHT22;22788;51.434;6.786;2023-07-29T12:43:30;21.90;99.90
36856;DHT22;22788;51.434;6.786;2023-07-29T12:45:56;21.90;99.90
36856;DHT22;22788;51.434;6.786;2023-07-29T12:48:22;21.80;99.90
36856;DHT22;22788;51.434;6.786;2023-07-29T12:50:48;21.80;99.90
36856;DHT22;22788;51.434;6.786;2023-07-29T12:53:13;21.80;99.90
36856;DHT22;22788;51.434;6.786;2023-07-29T12:55:39;21.80;99.90
36856;DHT22;22788;51.434;6.786;2023-07-29T12:58:05;21.80;99.90
36856;DHT22;22788;51.434;6.786;2023-07-29T13:00:31;21.80;99.90
36856;DHT22;22788;51.434;6.786;2023-07-29T13:02:57;21.90;99.90
36856;DHT22;22788;51.434;6.786;2023-07-29T13:05:23;22.10;99.90
36856;DHT22;22788;51.434;6.786;2023-07-29T13:07:49;22.20;99.90
36856;DHT22;22788;51.434;6.786;2023-07-29T13:10:14;22.10;99.90
36856;DHT22;22788;51.434;6.786;2023-07-29T13:12:40;22.10;99.90
36856;DHT22;22788;51.434;6.786;2023-07-29T13:15:07;22.10;99.90
36856;DHT22;22788;51.434;6.786;2023-07-29T13:17:34;22.00;99.90
36856;DHT22;22788;51.434;6.786;2023-07-29T13:20:00;22.10;99.90
36856;DHT22;22788;51.434;6.786;2023-07-29T13:22:25;22.00;99.90
36856;DHT22;22788;51.434;6.786;2023-07-29T13:24:51;22.00;99.90
36856;DHT22;22788;51.434;6.786;2023-07-29T13:27:16;22.00;99.90
36856;DHT22;22788;51.434;6.786;2023-07-29T13:29:42;22.00;99.90
36856;DHT22;22788;51.434;6.786;2023-07-29T13:32:08;21.90;99.90
36856;DHT22;22788;51.434;6.786;2023-07-29T13:34:35;21.90;99.90
36856;DHT22;22788;51.434;6.786;2023-07-29T13:37:00;21.80;99.90
36856;DHT22;22788;51.434;6.786;2023-07-29T13:39:26;21.80;99.90
36856;DHT22;22788;51.434;6.786;2023-07-29T13:41:52;21.80;99.90
36856;DHT22;22788;51.434;6.786;2023-07-29T13:44:17;21.80;99.90
36856;DHT22;22788;51.434;6.786;2023-07-29T13:46:43;21.70;99.90
36856;DHT22;22788;51.434;6.786;2023-07-29T13:49:09;21.70;99.90
36856;DHT22;22788;51.434;6.786;2023-07-29T13:51:35;21.60;99.90
36856;DHT22;22788;51.434;6.786;2023-07-29T13:54:01;21.60;99.90
36856;DHT22;22788;51.434;6.786;2023-07-29T13:56:27;21.50;99.90
36856;DHT22;22788;51.434;6.786;2023-07-29T13:58:52;21.50;99.90
36856;DHT22;22788;51.434;6.786;2023-07-29T14:01:18;21.40;99.90
36856;DHT22;22788;51.434;6.786;2023-07-29T14:03:44;21.40;99.90
36856;DHT22;22788;51.434;6.786;2023-07-29T14:06:09;21.40;99.90
36856;DHT22;22788;51.434;6.786;2023-07-29T14:08:36;21.30;99.90
36856;DHT22;22788;51.434;6.786;2023-07-29T14:11:02;21.30;99.90
36856;DHT22;22788;51.434;6.786;2023-07-29T14:13:27;21.20;99.90
36856;DHT22;22788;51.434;6.786;2023-07-29T14:15:53;21.10;99.90
36856;DHT22;22788;51.434;6.786;2023-07-29T14:18:19;21.10;99.90
36856;DHT22;22788;51.434;6.786;2023-07-29T14:20:44;21.10;99.90
36856;DHT22;22788;51.434;6.786;2023-07-29T14:23:10;21.10;99.90
36856;DHT22;22788;51.434;6.786;2023-07-29T14:25:37;21.20;99.90
36856;DHT22;22788;51.434;6.786;2023-07-29T14:28:03;21.30;99.90
36856;DHT22;22788;51.434;6.786;2023-07-29T14:30:29;21.40;99.90
36856;DHT22;22788;51.434;6.786;2023-07-29T14:32:55;21.40;99.90
36856;DHT22;22788;51.434;6.786;2023-07-29T14:35:20;21.50;99.90
36856;DHT22;22788;51.434;6.786;2023-07-29T14:37:46;21.40;99.90
36856;DHT22;22788;51.434;6.786;2023-07-29T14:40:12;21.50;99.90
36856;DHT22;22788;51.434;6.786;2023-07-29T14:42:39;21.50;99.90
36856;DHT22;22788;51.434;6.786;2023-07-29T14:45:05;21.50;99.90
36856;DHT22;22788;51.434;6.786;2023-07-29T14:47:31;21.40;99.90
36856;DHT22;22788;51.434;6.786;2023-07-29T14:49:57;21.40;99.90
36856;DHT22;22788;51.434;6.786;2023-07-29T14:52:22;21.30;99.90
36856;DHT22;22788;51.434;6.786;2023-07-29T14:54:48;21.30;99.90
36856;DHT22;22788;51.434;6.786;2023-07-29T14:57:13;21.10;99.90
36856;DHT22;22788;51.434;6.786;2023-07-29T14:59:40;21.10;99.90
36856;DHT22;22788;51.434;6.786;2023-07-29T15:02:06;21.10;99.90
36856;DHT22;22788;51.434;6.786;2023-07-29T15:04:32;21.10;99.90
36856;DHT22;22788;51.434;6.786;2023-07-29T15:06:57;21.10;99.90
36856;DHT22;22788;51.434;6.786;2023-07-29T15:09:23;21.10;99.90
36856;DHT22;22788;51.434;6.786;2023-07-29T15:11:48;21.10;99.90
36856;DHT22;22788;51.434;6.786;2023-07-29T15:14:14;21.10;99.90
36856;DHT22;22788;51.434;6.786;2023-07-29T15:16:41;21.10;99.90
36856;DHT22;22788;51.434;6.786;2023-07-29T15:19:07;21.10;99.90
36856;DHT22;22788;51.434;6.786;2023-07-29T15:21:32;21.10;99.90
36856;DHT22;22788;51.434;6.786;2023-07-29T15:23:58;21.10;99.90
36856;DHT22;22788;51.434;6.786;2023-07-29T15:26:23;21.10;99.90